Time;durP1;ratioP1;P1;durP2;ratioP2;P2;SDS_P1;SDS_P2;PMS_P1;PMS_P2;Temp;Humidity;BMP_temperature;BMP_pressure;BME280_temperature;BME280_humidity;BME280_pressure;Samples;Min_cycle;Max_cycle;Signal;HPM_P1;HPM_P2
2021/06/12 00:00:14;;;;;;;5.60;5.10;;;;;;;22.08;51.80;101036.84;703184;28;1446;-68
2021/06/12 00:00:35;;;;;;;5.80;5.20;;;;;;;22.09;51.98;101033.84;698265;28;93186;-68
2021/06/12 00:00:56;;;;;;;5.30;4.80;;;;;;;22.08;51.32;101032.16;700909;28;24301;-68
2021/06/12 00:01:17;;;;;;;5.18;4.68;;;;;;;22.09;51.72;101033.84;700545;28;15142;-68
2021/06/12 00:01:38;;;;;;;5.20;4.68;;;;;;;22.09;51.97;101033.03;702825;28;1784;-68
2021/06/12 00:02:00;;;;;;;4.93;4.47;;;;;;;22.10;51.89;101035.53;701614;28;22408;-68
2021/06/12 00:02:21;;;;;;;5.38;4.88;;;;;;;22.09;51.73;101031.09;702701;28;17972;-67
2021/06/12 00:02:42;;;;;;;5.38;4.80;;;;;;;22.11;51.69;101042.69;702516;28;13565;-68
2021/06/12 00:03:04;;;;;;;5.40;4.70;;;;;;;22.10;51.62;101032.78;700724;28;44448;-68
2021/06/12 00:03:26;;;;;;;5.18;4.78;;;;;;;22.12;51.52;101035.28;701467;28;43904;-67
2021/06/12 00:03:47;;;;;;;5.25;4.78;;;;;;;22.11;51.41;101037.19;702861;28;10525;-67
2021/06/12 00:04:08;;;;;;;5.47;4.97;;;;;;;22.11;51.62;101039.09;702424;28;19136;-67
2021/06/12 00:04:29;;;;;;;5.30;4.85;;;;;;;22.11;51.59;101034.44;701493;28;44408;-68
2021/06/12 00:04:51;;;;;;;5.35;4.85;;;;;;;22.11;51.51;101033.59;701810;28;22373;-68
2021/06/12 00:05:12;;;;;;;5.80;5.30;;;;;;;22.10;51.52;101032.78;701401;28;22035;-68
2021/06/12 00:05:34;;;;;;;5.85;5.00;;;;;;;22.10;51.53;101037.44;700699;28;45283;-68
2021/06/12 00:05:55;;;;;;;5.60;5.05;;;;;;;22.09;51.69;101036.59;702239;28;23960;-68
2021/06/12 00:06:16;;;;;;;6.15;4.75;;;;;;;22.09;51.81;101033.03;699319;28;9182;-68
2021/06/12 00:06:37;;;;;;;6.13;4.75;;;;;;;22.09;51.86;101033.03;699005;28;19825;-67
2021/06/12 00:06:59;;;;;;;5.82;4.75;;;;;;;22.07;51.67;101038.78;698865;28;15695;-68
2021/06/12 00:07:20;;;;;;;5.40;4.95;;;;;;;22.08;51.67;101031.34;698607;28;44294;-68
2021/06/12 00:07:41;;;;;;;5.40;4.90;;;;;;;22.06;51.83;101036.28;699528;28;20132;-68
2021/06/12 00:08:02;;;;;;;5.45;4.95;;;;;;;22.04;51.61;101031.00;699637;28;14243;-68
2021/06/12 00:08:49;;;;;;;6.47;5.00;;;;;;;22.03;51.82;101034.84;700720;28;58955;-68
2021/06/12 00:09:10;;;;;;;5.60;5.00;;;;;;;22.02;51.47;101033.19;702316;28;23549;-68
2021/06/12 00:09:31;;;;;;;5.50;5.00;;;;;;;22.03;51.77;101032.09;701928;28;16259;-68
2021/06/12 00:09:55;;;;;;;5.65;5.15;;;;;;;22.01;51.69;101033.44;702160;28;14943;-68
2021/06/12 00:10:20;;;;;;;5.68;5.18;;;;;;;22.01;51.78;101036.19;703047;28;1499;-68
2021/06/12 00:10:42;;;;;;;6.80;5.03;;;;;;;22.00;51.69;101032.56;699940;28;92298;-67
2021/06/12 00:11:05;;;;;;;6.82;5.00;;;;;;;22.00;51.55;101037.25;700927;28;44416;-68
2021/06/12 00:11:26;;;;;;;6.95;5.10;;;;;;;22.00;51.95;101034.50;701731;28;1479;-68
2021/06/12 00:11:47;;;;;;;6.85;4.80;;;;;;;21.99;51.71;101035.56;702423;28;22469;-68
2021/06/12 00:12:09;;;;;;;7.60;4.65;;;;;;;21.98;51.97;101031.16;701724;28;21750;-68
2021/06/12 00:12:30;;;;;;;7.85;4.50;;;;;;;21.98;51.75;101026.50;701315;28;47486;-68
2021/06/12 00:12:52;;;;;;;5.25;4.82;;;;;;;21.98;51.80;101033.91;701408;28;21693;-68
2021/06/12 00:13:13;;;;;;;5.40;4.90;;;;;;;21.98;51.80;101033.91;702081;28;14038;-68
2021/06/12 00:13:34;;;;;;;8.07;5.67;;;;;;;21.95;52.15;101030.56;701985;28;32697;-68
2021/06/12 00:13:55;;;;;;;7.07;4.80;;;;;;;21.94;51.91;101037.16;700600;28;32245;-68
2021/06/12 00:14:17;;;;;;;5.35;4.95;;;;;;;21.93;51.95;101032.72;702284;28;19635;-68
2021/06/12 00:14:38;;;;;;;5.05;4.57;;;;;;;21.92;51.98;101028.31;701676;28;39889;-68
2021/06/12 00:14:59;;;;;;;5.10;4.60;;;;;;;21.92;52.15;101030.22;701780;28;22220;-67
2021/06/12 00:15:22;;;;;;;5.00;4.70;;;;;;;21.92;52.11;101024.72;702304;28;17759;-68
2021/06/12 00:15:43;;;;;;;5.20;4.80;;;;;;;21.91;52.18;101028.56;701562;28;46273;-68
2021/06/12 00:16:04;;;;;;;5.32;4.88;;;;;;;21.89;52.11;101023.28;701538;28;41852;-68
2021/06/12 00:16:25;;;;;;;5.55;5.05;;;;;;;21.88;52.13;101024.41;701963;28;21413;-68
2021/06/12 00:16:46;;;;;;;6.05;5.22;;;;;;;21.87;52.18;101022.72;702977;28;912;-68
2021/06/12 00:17:08;;;;;;;6.18;5.13;;;;;;;21.86;52.34;101029.28;702309;28;23367;-68
2021/06/12 00:17:29;;;;;;;6.35;4.88;;;;;;;21.85;52.19;101019.38;703045;28;860;-68
2021/06/12 00:17:50;;;;;;;5.28;4.78;;;;;;;21.86;52.35;101022.97;702141;28;22470;-68
2021/06/12 00:18:12;;;;;;;5.63;5.07;;;;;;;21.85;52.29;101024.03;701266;28;46371;-67
2021/06/12 00:18:37;;;;;;;5.10;4.70;;;;;;;21.83;52.30;101024.28;700859;28;60407;-68
2021/06/12 00:18:58;;;;;;;5.25;4.75;;;;;;;21.84;52.18;101031.47;702188;28;24372;-68
2021/06/12 00:19:19;;;;;;;5.00;4.60;;;;;;;21.84;52.25;101022.38;701687;28;22529;-67
2021/06/12 00:19:40;;;;;;;5.53;4.80;;;;;;;21.84;52.12;101027.88;702017;28;22479;-67
2021/06/12 00:20:04;;;;;;;5.15;4.70;;;;;;;21.82;52.13;101021.78;702238;28;23603;-68
2021/06/12 00:20:29;;;;;;;5.40;4.90;;;;;;;21.83;52.17;101027.03;702457;28;14748;-67
2021/06/12 00:20:52;;;;;;;5.30;4.90;;;;;;;21.82;52.26;101024.53;700850;28;60081;-67
2021/06/12 00:21:13;;;;;;;5.50;5.00;;;;;;;21.82;52.18;101021.78;700595;28;33761;-67
2021/06/12 00:21:36;;;;;;;5.90;4.88;;;;;;;21.83;52.11;101024.28;700837;28;22554;-68
2021/06/12 00:22:02;;;;;;;5.30;4.80;;;;;;;21.85;52.04;101022.13;701051;28;60465;-68
2021/06/12 00:22:24;;;;;;;5.55;5.05;;;;;;;21.84;51.94;101020.47;702213;28;22572;-68
2021/06/12 00:22:45;;;;;;;5.70;5.20;;;;;;;21.84;51.93;101023.22;702524;28;22788;-68
2021/06/12 00:23:06;;;;;;;5.68;5.10;;;;;;;21.84;52.02;101017.72;702396;28;15397;-67
2021/06/12 00:23:27;;;;;;;6.55;5.32;;;;;;;21.84;52.07;101023.22;701286;28;41565;-68
2021/06/12 00:23:49;;;;;;;5.70;5.20;;;;;;;21.86;52.06;101021.03;702085;28;23505;-68
2021/06/12 00:24:10;;;;;;;5.40;4.78;;;;;;;21.84;52.00;101022.38;702384;28;18381;-68
2021/06/12 00:24:31;;;;;;;5.10;4.65;;;;;;;21.85;52.16;101022.13;700119;28;46371;-68
2021/06/12 00:24:52;;;;;;;4.95;4.55;;;;;;;21.84;52.09;101022.38;701564;28;5296;-68
2021/06/12 00:25:15;;;;;;;5.10;4.70;;;;;;;21.84;52.01;101022.38;701288;28;15579;-67
2021/06/12 00:25:38;;;;;;;5.03;4.57;;;;;;;21.84;52.05;101022.38;700659;28;70009;-68
2021/06/12 00:25:59;;;;;;;4.85;4.47;;;;;;;21.82;52.09;101019.88;700708;28;67333;-67
2021/06/12 00:26:22;;;;;;;4.93;4.53;;;;;;;21.83;52.00;101020.69;702829;28;6153;-68
2021/06/12 00:26:43;;;;;;;5.10;4.60;;;;;;;21.83;52.09;101021.53;701521;28;45137;-68
2021/06/12 00:27:05;;;;;;;6.35;5.15;;;;;;;21.82;51.98;101022.63;702546;28;14050;-67
2021/06/12 00:27:26;;;;;;;6.88;5.03;;;;;;;21.82;52.00;101024.53;699207;28;35338;-68
2021/06/12 00:27:48;;;;;;;6.70;5.10;;;;;;;21.79;52.13;101020.38;700558;28;23441;-68
2021/06/12 00:28:09;;;;;;;5.63;5.13;;;;;;;21.80;52.11;101018.44;700782;28;1057;-68
2021/06/12 00:28:30;;;;;;;5.07;4.63;;;;;;;21.80;51.95;101022.00;700986;28;18871;-67
2021/06/12 00:28:51;;;;;;;5.60;5.10;;;;;;;21.80;51.96;101016.53;699690;28;35192;-68
2021/06/12 00:29:13;;;;;;;5.63;5.10;;;;;;;21.79;52.22;101023.13;697398;28;14575;-68
2021/06/12 00:29:34;;;;;;;5.47;4.63;;;;;;;21.79;52.29;101020.38;698840;28;10239;-68
2021/06/12 00:29:55;;;;;;;5.03;4.50;;;;;;;21.78;52.13;101022.25;699688;28;15111;-67
2021/06/12 00:30:17;;;;;;;5.15;4.75;;;;;;;21.79;52.25;101017.63;699841;28;11176;-67
2021/06/12 00:30:38;;;;;;;5.80;5.20;;;;;;;21.78;51.99;101016.75;698528;28;47201;-68
2021/06/12 00:30:59;;;;;;;5.93;5.07;;;;;;;21.79;51.82;101017.63;699734;28;15304;-67
2021/06/12 00:31:20;;;;;;;6.90;5.15;;;;;;;21.80;51.97;101018.44;701661;28;4057;-68
2021/06/12 00:31:42;;;;;;;5.20;4.65;;;;;;;21.77;52.17;101017.88;701655;28;22440;-67
2021/06/12 00:32:04;;;;;;;5.30;4.80;;;;;;;21.77;52.01;101008.75;701475;28;46368;-68
2021/06/12 00:32:25;;;;;;;6.07;4.70;;;;;;;21.76;52.28;101013.44;698237;28;46349;-67
2021/06/12 00:32:46;;;;;;;5.53;4.32;;;;;;;21.77;52.08;101014.25;698715;28;21529;-68
2021/06/12 00:33:07;;;;;;;4.90;4.50;;;;;;;21.77;52.17;101014.25;698860;28;23210;-68
2021/06/12 00:33:28;;;;;;;6.45;4.70;;;;;;;21.78;52.07;101013.19;699128;28;21528;-68
2021/06/12 00:33:50;;;;;;;5.68;4.95;;;;;;;21.77;52.12;101011.50;699133;28;24364;-68
2021/06/12 00:34:11;;;;;;;5.30;4.90;;;;;;;21.77;52.19;101012.38;699468;28;24311;-67
2021/06/12 00:34:32;;;;;;;5.65;5.15;;;;;;;21.74;51.86;101004.59;702136;28;23415;-68
2021/06/12 00:34:53;;;;;;;5.30;4.90;;;;;;;21.76;52.01;101007.94;703160;28;4173;-68
2021/06/12 00:35:14;;;;;;;5.30;4.90;;;;;;;21.76;52.12;101015.34;702822;28;2608;-67
2021/06/12 00:35:35;;;;;;;5.28;4.88;;;;;;;21.75;52.24;101009.00;701644;28;45348;-68
2021/06/12 00:35:56;;;;;;;5.63;5.10;;;;;;;21.75;52.45;101013.69;703279;28;1532;-68
2021/06/12 00:36:19;;;;;;;5.22;4.72;;;;;;;21.75;52.26;101010.94;702840;28;7238;-67
2021/06/12 00:36:41;;;;;;;5.20;4.82;;;;;;;21.72;52.19;101015.03;700954;28;68466;-68
2021/06/12 00:37:02;;;;;;;5.47;5.07;;;;;;;21.72;52.42;101015.03;702245;28;23506;-67
2021/06/12 00:37:24;;;;;;;5.43;5.03;;;;;;;21.70;52.24;101003.41;701346;28;46299;-67
2021/06/12 00:37:45;;;;;;;5.25;4.82;;;;;;;21.70;52.38;101003.41;702572;28;21698;-67
2021/06/12 00:38:06;;;;;;;6.35;5.05;;;;;;;21.69;52.38;101007.25;702294;28;23530;-67
2021/06/12 00:38:27;;;;;;;6.82;5.13;;;;;;;21.67;52.40;101001.16;702225;28;21363;-68
2021/06/12 00:38:49;;;;;;;5.60;5.10;;;;;;;21.67;52.60;101012.16;701107;28;46378;-68
2021/06/12 00:39:10;;;;;;;5.20;4.82;;;;;;;21.67;52.60;101005.84;702453;28;23417;-68
2021/06/12 00:39:31;;;;;;;5.13;4.72;;;;;;;21.67;52.45;101003.91;702115;28;5362;-68
2021/06/12 00:39:53;;;;;;;5.55;5.03;;;;;;;21.67;52.57;101001.16;701669;28;45289;-68
2021/06/12 00:40:16;;;;;;;5.70;4.70;;;;;;;21.67;52.44;101001.16;701689;28;33893;-67
2021/06/12 00:40:37;;;;;;;5.15;4.80;;;;;;;21.68;52.56;101007.50;700406;28;70304;-68
2021/06/12 00:40:58;;;;;;;6.00;5.30;;;;;;;21.67;52.42;101001.16;702169;28;23391;-68
2021/06/12 00:41:20;;;;;;;5.72;5.13;;;;;;;21.67;52.59;101008.56;701743;28;21523;-68
2021/06/12 00:41:43;;;;;;;5.43;4.97;;;;;;;21.67;52.52;101003.09;701502;28;45241;-68
2021/06/12 00:42:05;;;;;;;5.63;5.10;;;;;;;21.67;52.52;101008.56;700234;28;70498;-68
2021/06/12 00:42:26;;;;;;;6.60;4.93;;;;;;;21.67;52.68;101008.56;700461;28;22399;-67
2021/06/12 00:42:47;;;;;;;5.35;4.70;;;;;;;21.65;52.39;101003.31;700270;28;46344;-68
2021/06/12 00:43:09;;;;;;;5.22;4.75;;;;;;;21.64;52.74;101001.66;700081;28;44288;-68
2021/06/12 00:43:30;;;;;;;5.25;4.75;;;;;;;21.63;52.41;101002.75;700136;28;45496;-68
2021/06/12 00:43:51;;;;;;;5.18;4.72;;;;;;;21.65;52.48;101002.50;701360;28;22331;-68
2021/06/12 00:44:12;;;;;;;5.53;5.03;;;;;;;21.67;52.61;101005.84;702111;28;23407;-67
2021/06/12 00:44:35;;;;;;;6.32;4.90;;;;;;;21.66;52.42;101007.75;702968;28;921;-68
2021/06/12 00:44:56;;;;;;;5.32;4.70;;;;;;;21.66;52.67;100998.66;702531;28;20012;-68
2021/06/12 00:45:20;;;;;;;5.43;5.03;;;;;;;21.65;52.52;101000.56;698317;28;32675;-68
2021/06/12 00:45:46;;;;;;;5.65;5.15;;;;;;;21.64;52.80;101001.66;696709;28;81603;-68
2021/06/12 00:46:07;;;;;;;5.63;5.15;;;;;;;21.64;52.65;100998.91;695714;28;115155;-68
2021/06/12 00:46:28;;;;;;;5.63;5.15;;;;;;;21.64;52.76;101007.13;699341;28;19752;-68
2021/06/12 00:46:49;;;;;;;5.20;4.70;;;;;;;21.63;52.80;101007.38;698656;28;23453;-68
2021/06/12 00:47:10;;;;;;;5.40;4.90;;;;;;;21.64;52.86;101000.81;699484;28;43324;-68
2021/06/12 00:47:31;;;;;;;5.22;4.82;;;;;;;21.62;52.97;101006.56;700851;28;20569;-68
2021/06/12 00:47:54;;;;;;;5.15;4.75;;;;;;;21.62;52.80;100995.56;702214;28;23466;-68
2021/06/12 00:48:16;;;;;;;5.60;5.10;;;;;;;21.62;52.95;101001.06;701406;28;46377;-68
2021/06/12 00:48:38;;;;;;;7.88;5.10;;;;;;;21.63;52.90;101004.63;702102;28;32680;-68
2021/06/12 00:48:59;;;;;;;6.50;5.05;;;;;;;21.63;52.93;101007.38;701031;28;46250;-67
2021/06/12 00:49:20;;;;;;;5.55;5.15;;;;;;;21.64;52.96;101000.81;701076;28;22379;-67
2021/06/12 00:49:41;;;;;;;5.68;5.07;;;;;;;21.64;52.91;101000.81;701771;28;35840;-69
2021/06/12 00:50:03;;;;;;;5.55;4.78;;;;;;;21.63;52.96;101005.50;702598;28;14226;-67
2021/06/12 00:50:30;;;;;;;5.67;5.17;;;;;;;21.63;53.07;100994.50;701144;28;29462;-68
2021/06/12 00:50:52;;;;;;;5.60;5.10;;;;;;;21.63;52.89;100996.41;695668;28;130713;-67
2021/06/12 00:51:13;;;;;;;5.95;4.95;;;;;;;21.62;52.95;100995.56;697900;28;46533;-68
2021/06/12 00:51:35;;;;;;;5.95;5.07;;;;;;;21.62;52.86;101009.31;700337;28;967;-67
2021/06/12 00:51:56;;;;;;;5.70;5.03;;;;;;;21.62;52.89;100997.50;699501;28;17558;-67
2021/06/12 00:52:17;;;;;;;5.55;5.05;;;;;;;21.63;52.71;100999.13;699513;28;23418;-68
2021/06/12 00:52:39;;;;;;;5.10;4.72;;;;;;;21.62;52.45;100994.75;700083;28;19308;-68
2021/06/12 00:53:00;;;;;;;5.32;4.82;;;;;;;21.60;52.97;100998.56;701747;28;39166;-68
2021/06/12 00:53:36;;;;;;;5.10;4.70;;;;;;;21.60;52.77;100995.81;701415;28;23489;-68
2021/06/12 00:53:57;;;;;;;5.15;4.75;;;;;;;21.62;52.68;101003.00;697631;28;137713;-68
2021/06/12 00:54:19;;;;;;;5.82;4.85;;;;;;;21.59;52.74;100999.63;698829;28;22244;-68
2021/06/12 00:54:40;;;;;;;5.55;4.72;;;;;;;21.60;52.89;100995.00;698851;28;24323;-68
2021/06/12 00:55:01;;;;;;;5.35;4.85;;;;;;;21.57;52.68;100999.03;699066;28;5533;-67
2021/06/12 00:55:22;;;;;;;4.90;4.40;;;;;;;21.58;52.93;101003.47;695352;28;22504;-68
2021/06/12 00:55:43;;;;;;;5.28;4.78;;;;;;;21.57;52.98;101011.97;696133;28;40983;-68
2021/06/12 00:56:06;;;;;;;5.10;4.70;;;;;;;21.56;52.70;100993.78;696796;28;19159;-68
2021/06/12 00:56:27;;;;;;;6.13;4.90;;;;;;;21.56;53.01;100997.38;697555;28;45428;-68
2021/06/12 00:56:49;;;;;;;6.22;4.88;;;;;;;21.56;52.99;100996.53;699352;28;18312;-68
2021/06/12 00:57:11;;;;;;;5.60;5.05;;;;;;;21.55;53.03;100997.63;697849;28;70295;-68
2021/06/12 00:57:33;;;;;;;5.40;4.90;;;;;;;21.53;53.22;100997.03;702049;28;22504;-68
2021/06/12 00:57:55;;;;;;;5.10;4.70;;;;;;;21.51;53.07;101002.78;700926;28;61120;-67
2021/06/12 00:58:16;;;;;;;5.85;5.10;;;;;;;21.51;53.11;100999.19;702392;28;22474;-68
2021/06/12 00:58:42;;;;;;;6.75;5.15;;;;;;;21.51;53.27;101001.94;702137;28;23426;-68
2021/06/12 00:59:03;;;;;;;5.40;4.93;;;;;;;21.50;53.08;100994.78;697978;28;138810;-68
2021/06/12 00:59:24;;;;;;;5.30;4.90;;;;;;;21.49;52.71;100998.59;701873;28;15912;-68
2021/06/12 00:59:45;;;;;;;5.03;4.63;;;;;;;21.48;53.10;101003.22;702282;28;18394;-68
2021/06/12 01:00:10;;;;;;;5.55;5.05;;;;;;;21.47;53.13;100996.03;702284;28;23456;-67
2021/06/12 01:00:31;;;;;;;5.43;4.90;;;;;;;21.46;53.14;101005.38;699036;28;116001;-67
2021/06/12 01:00:52;;;;;;;5.45;4.85;;;;;;;21.44;53.07;100999.28;701243;28;23459;-68
2021/06/12 01:01:15;;;;;;;5.07;4.68;;;;;;;21.44;53.24;100999.28;701703;28;17615;-68
2021/06/12 01:01:36;;;;;;;5.22;4.72;;;;;;;21.44;53.18;100996.53;700713;28;61435;-67
2021/06/12 01:01:58;;;;;;;5.35;4.85;;;;;;;21.43;53.18;100994.88;702190;28;21529;-67
2021/06/12 01:02:19;;;;;;;5.50;5.00;;;;;;;21.43;53.21;100994.88;701070;28;45613;-67
2021/06/12 01:02:40;;;;;;;5.43;4.80;;;;;;;21.41;53.26;100992.38;702172;28;23585;-68
2021/06/12 01:03:02;;;;;;;5.05;4.63;;;;;;;21.40;53.34;100996.19;702016;28;23433;-68
2021/06/12 01:03:24;;;;;;;4.90;4.50;;;;;;;21.41;53.17;100999.78;701260;28;46386;-68
2021/06/12 01:03:46;;;;;;;5.20;4.80;;;;;;;21.42;53.07;100999.53;701155;28;45358;-68
2021/06/12 01:04:07;;;;;;;5.30;4.88;;;;;;;21.43;52.98;100994.88;700982;28;37307;-68
2021/06/12 01:04:29;;;;;;;5.30;4.80;;;;;;;21.43;53.01;101000.38;701255;28;21299;-67
2021/06/12 01:04:50;;;;;;;5.13;4.65;;;;;;;21.42;52.83;100998.69;702798;28;937;-68
2021/06/12 01:05:13;;;;;;;5.32;4.82;;;;;;;21.43;52.92;100997.63;702434;28;913;-68
2021/06/12 01:05:35;;;;;;;5.60;5.07;;;;;;;21.43;52.82;101000.38;700314;28;59046;-67
2021/06/12 01:05:56;;;;;;;5.07;4.65;;;;;;;21.42;52.76;100994.03;702724;28;3397;-68
2021/06/12 01:06:20;;;;;;;5.00;4.60;;;;;;;21.44;52.97;101002.03;701292;28;1024;-68
2021/06/12 01:06:51;;;;;;;5.40;5.00;;;;;;;21.45;52.89;100994.66;699592;28;60409;-68
2021/06/12 01:07:12;;;;;;;5.32;4.95;;;;;;;21.44;52.67;100993.78;700433;28;45254;-67
2021/06/12 01:07:33;;;;;;;5.10;4.70;;;;;;;21.44;52.72;100996.53;702140;28;23808;-67
2021/06/12 01:07:54;;;;;;;5.25;4.88;;;;;;;21.44;52.80;100999.28;701606;28;11679;-67
2021/06/12 01:08:15;;;;;;;5.07;4.70;;;;;;;21.44;52.69;100993.78;702048;28;21940;-68
2021/06/12 01:08:37;;;;;;;5.70;5.20;;;;;;;21.44;52.67;100996.53;702231;28;23449;-68
2021/06/12 01:08:58;;;;;;;5.43;4.93;;;;;;;21.44;52.64;100996.53;700794;28;46509;-68
2021/06/12 01:09:21;;;;;;;5.78;5.30;;;;;;;21.43;52.48;100995.72;701410;28;22641;-67
2021/06/12 01:09:42;;;;;;;5.47;5.07;;;;;;;21.43;52.46;100987.47;700421;28;69434;-68
2021/06/12 01:10:05;;;;;;;5.53;5.13;;;;;;;21.45;52.43;100989.97;702255;28;21468;-68
2021/06/12 01:10:26;;;;;;;5.22;4.82;;;;;;;21.44;52.32;100991.03;699850;28;69516;-68
2021/06/12 01:10:47;;;;;;;5.47;4.97;;;;;;;21.43;52.19;100981.97;701831;28;22424;-68
2021/06/12 01:11:09;;;;;;;5.78;5.20;;;;;;;21.43;52.20;100992.13;700321;28;23529;-68
2021/06/12 01:11:34;;;;;;;5.50;5.10;;;;;;;21.42;52.13;100988.53;699916;28;45279;-68
2021/06/12 01:12:03;;;;;;;5.63;5.00;;;;;;;21.43;51.92;100989.38;698829;28;115874;-67
2021/06/12 01:12:25;;;;;;;5.45;5.05;;;;;;;21.43;52.10;100986.63;696576;28;160895;-67
2021/06/12 01:12:58;;;;;;;6.55;5.07;;;;;;;21.43;52.06;100989.38;700439;28;68724;-67
2021/06/12 01:13:27;;;;;;;5.68;5.18;;;;;;;21.41;52.00;100984.13;697921;28;137654;-67
2021/06/12 01:13:55;;;;;;;5.53;5.07;;;;;;;21.41;51.92;100991.53;697384;28;137754;-67
2021/06/12 01:14:18;;;;;;;5.78;5.22;;;;;;;21.41;51.99;100984.13;696945;28;126832;-67
2021/06/12 01:14:41;;;;;;;5.40;4.95;;;;;;;21.41;51.98;100975.91;700420;28;69323;-68
2021/06/12 01:15:05;;;;;;;5.60;5.10;;;;;;;21.41;51.87;100983.28;700443;28;69429;-67
2021/06/12 01:15:38;;;;;;;5.43;5.03;;;;;;;21.41;52.16;100983.28;699055;28;90383;-67
2021/06/12 01:16:02;;;;;;;5.75;5.25;;;;;;;21.42;51.96;100976.72;697698;28;136121;-68
2021/06/12 01:16:28;;;;;;;5.35;4.93;;;;;;;21.41;52.03;100977.78;699916;28;84647;-67
2021/06/12 01:16:53;;;;;;;5.75;5.25;;;;;;;21.42;52.04;100979.47;698249;28;132451;-68
2021/06/12 01:17:18;;;;;;;5.18;4.78;;;;;;;21.42;51.94;100973.97;699347;28;86019;-67
2021/06/12 01:17:45;;;;;;;5.82;5.18;;;;;;;21.43;51.94;100967.41;698698;28;115991;-68
2021/06/12 01:18:09;;;;;;;5.65;5.07;;;;;;;21.43;52.04;100961.91;694069;28;138637;-67
2021/06/12 01:18:31;;;;;;;5.78;5.07;;;;;;;21.43;52.00;100968.22;696278;28;109003;-68
2021/06/12 01:18:54;;;;;;;5.80;5.30;;;;;;;21.43;52.15;100973.72;695207;28;43745;-67
2021/06/12 01:19:28;;;;;;;5.28;4.80;;;;;;;21.43;52.37;100961.91;695423;28;41910;-67
2021/06/12 01:20:19;;;;;;;5.60;5.10;;;;;;;21.45;52.19;100967.16;695430;28;61921;-68
2021/06/12 01:21:00;;;;;;;5.38;4.88;;;;;;;21.45;51.93;100961.66;684857;28;138379;-68
2021/06/12 01:21:30;;;;;;;5.57;5.07;;;;;;;21.46;51.92;100963.31;697457;28;137775;-68
2021/06/12 01:21:58;;;;;;;5.85;5.07;;;;;;;21.45;51.78;100968.00;700753;28;60910;-68
2021/06/12 01:22:27;;;;;;;6.05;5.13;;;;;;;21.46;51.67;100966.06;697673;28;139767;-68
2021/06/12 01:23:06;;;;;;;5.40;4.72;;;;;;;21.45;51.76;100969.91;700961;28;62350;-67
2021/06/12 01:24:03;;;;;;;5.35;4.95;;;;;;;21.42;51.92;100963.81;697129;28;160380;-67
2021/06/12 01:24:42;;;;;;;5.60;4.60;;;;;;;21.44;52.11;100963.56;698540;28;122206;-68
2021/06/12 01:25:06;;;;;;;5.38;4.88;;;;;;;21.46;52.16;100966.06;698073;28;136031;-68
2021/06/12 01:25:31;;;;;;;5.13;4.72;;;;;;;21.46;51.86;100966.91;699136;28;75699;-68
2021/06/12 01:25:59;;;;;;;5.25;4.80;;;;;;;21.47;52.29;100962.25;698392;28;133262;-67
2021/06/12 01:26:40;;;;;;;4.95;4.55;;;;;;;21.46;52.11;100960.56;697258;28;159307;-67
2021/06/12 01:27:15;;;;;;;5.80;5.05;;;;;;;21.46;52.09;100966.06;698372;28;124861;-69
2021/06/12 01:28:04;;;;;;;5.93;5.03;;;;;;;21.45;52.37;100965.25;697701;28;136133;-68
2021/06/12 01:28:42;;;;;;;5.30;4.85;;;;;;;21.44;52.37;100960.81;691451;28;62296;-68
2021/06/12 01:29:16;;;;;;;5.57;5.07;;;;;;;21.41;52.46;100961.31;701036;28;59894;-68
2021/06/12 01:30:01;;;;;;;5.68;4.88;;;;;;;21.40;52.31;100965.16;697229;28;158558;-68
2021/06/12 01:30:23;;;;;;;5.53;5.03;;;;;;;21.38;52.48;100965.38;697844;28;129508;-67
2021/06/12 01:30:45;;;;;;;5.40;5.00;;;;;;;21.38;52.51;100968.13;700449;28;45146;-67
2021/06/12 01:31:07;;;;;;;5.30;4.80;;;;;;;21.39;52.38;100966.22;700666;28;46824;-67
2021/06/12 01:31:28;;;;;;;5.78;5.18;;;;;;;21.37;52.51;100960.97;700245;28;44841;-67
2021/06/12 01:31:50;;;;;;;5.53;5.10;;;;;;;21.36;52.65;100959.31;701946;28;22478;-67
2021/06/12 01:32:12;;;;;;;5.93;5.45;;;;;;;21.37;52.51;100966.47;700901;28;37430;-68
2021/06/12 01:32:35;;;;;;;5.50;5.00;;;;;;;21.37;52.43;100968.38;701232;28;44364;-68
2021/06/12 01:33:01;;;;;;;5.40;4.85;;;;;;;21.36;52.60;100975.81;698408;28;93113;-67
2021/06/12 01:33:23;;;;;;;5.50;5.00;;;;;;;21.35;52.56;100963.13;698927;28;115276;-68
2021/06/12 01:33:46;;;;;;;5.90;5.40;;;;;;;21.35;52.60;100965.88;701430;28;44407;-68
2021/06/12 01:34:08;;;;;;;5.75;5.25;;;;;;;21.35;52.64;100967.81;699658;28;69392;-67
2021/06/12 01:34:29;;;;;;;5.70;5.10;;;;;;;21.34;52.61;100960.63;701214;28;46582;-68
2021/06/12 01:34:52;;;;;;;5.45;4.95;;;;;;;21.32;52.48;100958.13;701528;28;23645;-67
2021/06/12 01:35:18;;;;;;;5.60;5.10;;;;;;;21.32;52.58;100963.63;701209;28;44301;-68
2021/06/12 01:35:41;;;;;;;5.85;5.35;;;;;;;21.32;52.67;100971.03;697789;28;139461;-68
2021/06/12 01:36:04;;;;;;;5.80;5.30;;;;;;;21.30;52.79;100963.03;700443;28;69471;-67
2021/06/12 01:36:25;;;;;;;5.65;5.18;;;;;;;21.30;52.82;100967.66;701194;28;44885;-67
2021/06/12 01:36:47;;;;;;;5.30;4.95;;;;;;;21.29;52.86;100961.34;700247;28;45032;-67
2021/06/12 01:37:10;;;;;;;5.90;5.40;;;;;;;21.28;52.86;100970.66;698995;28;44992;-68
2021/06/12 01:37:33;;;;;;;5.85;5.35;;;;;;;21.28;52.86;100967.09;699555;28;45245;-68
2021/06/12 01:37:55;;;;;;;5.88;5.38;;;;;;;21.27;52.94;100968.16;697988;28;90467;-67
2021/06/12 01:38:19;;;;;;;5.82;5.28;;;;;;;21.27;52.87;100966.25;700455;28;21569;-68
2021/06/12 01:38:44;;;;;;;5.50;5.10;;;;;;;21.27;52.90;100970.91;698075;28;84620;-67
2021/06/12 01:39:06;;;;;;;5.78;5.32;;;;;;;21.29;52.79;100968.78;698890;28;86420;-68
2021/06/12 01:39:27;;;;;;;5.93;5.38;;;;;;;21.27;52.72;100969.00;700352;28;46253;-67
2021/06/12 01:39:49;;;;;;;5.78;5.28;;;;;;;21.27;52.85;100970.91;702017;28;24407;-67
2021/06/12 01:40:11;;;;;;;6.47;5.53;;;;;;;21.27;52.62;100970.91;701169;28;47714;-67
2021/06/12 01:40:35;;;;;;;6.15;5.45;;;;;;;21.25;52.38;100971.16;700781;28;46397;-68
2021/06/12 01:40:57;;;;;;;6.22;5.72;;;;;;;21.26;52.81;100970.09;699926;28;90375;-68
2021/06/12 01:41:20;;;;;;;6.45;5.63;;;;;;;21.26;52.71;100972.00;700833;28;46108;-68
2021/06/12 01:41:42;;;;;;;6.13;5.50;;;;;;;21.23;52.63;100968.66;700514;28;69424;-68
2021/06/12 01:42:04;;;;;;;6.15;5.40;;;;;;;21.26;52.64;100974.75;701067;28;44227;-68
2021/06/12 01:42:26;;;;;;;6.15;5.60;;;;;;;21.24;52.89;100975.00;699792;28;45281;-68
2021/06/12 01:42:48;;;;;;;6.13;5.63;;;;;;;21.24;52.65;100977.75;700296;28;45266;-67
2021/06/12 01:43:10;;;;;;;6.25;5.65;;;;;;;21.23;52.92;100967.81;697472;28;44372;-67
2021/06/12 01:43:31;;;;;;;5.60;5.18;;;;;;;21.23;52.65;100976.88;698487;28;38641;-68
2021/06/12 01:43:55;;;;;;;5.90;5.30;;;;;;;21.22;53.02;100967.00;699007;28;23502;-68
2021/06/12 01:44:17;;;;;;;5.82;5.28;;;;;;;21.24;52.79;100969.50;696627;28;93204;-67
2021/06/12 01:44:39;;;;;;;5.88;5.38;;;;;;;21.23;52.67;100974.13;698436;28;46325;-67
2021/06/12 01:45:03;;;;;;;6.10;5.45;;;;;;;21.24;52.80;100973.06;699479;28;46364;-67
2021/06/12 01:45:25;;;;;;;7.50;5.80;;;;;;;21.24;52.59;100973.06;699341;28;90357;-68
2021/06/12 01:45:48;;;;;;;6.85;5.70;;;;;;;21.22;52.69;100969.75;700542;28;69487;-67
2021/06/12 01:46:11;;;;;;;6.00;5.47;;;;;;;21.24;53.02;100972.25;701267;28;45850;-68
2021/06/12 01:46:33;;;;;;;6.38;5.70;;;;;;;21.22;52.89;100968.88;699077;28;110804;-68
2021/06/12 01:46:56;;;;;;;6.20;5.65;;;;;;;21.23;52.65;100974.13;700381;28;46377;-68
2021/06/12 01:47:18;;;;;;;6.50;5.90;;;;;;;21.23;52.92;100981.56;700917;28;46560;-68
2021/06/12 01:47:40;;;;;;;6.40;5.85;;;;;;;21.22;52.83;100972.50;701202;28;45246;-68
2021/06/12 01:48:01;;;;;;;6.57;5.97;;;;;;;21.22;52.88;100972.50;698335;28;46190;-68
2021/06/12 01:48:22;;;;;;;6.57;6.05;;;;;;;21.22;52.75;100972.50;698503;28;22345;-68
2021/06/12 01:48:45;;;;;;;6.30;5.80;;;;;;;21.22;52.73;100971.63;698036;28;46369;-68
2021/06/12 01:49:07;;;;;;;6.35;5.82;;;;;;;21.20;53.07;100971.88;698243;28;44183;-67
2021/06/12 01:49:30;;;;;;;6.85;5.88;;;;;;;21.19;52.79;100961.97;697694;28;46720;-67